sensor_id;sensor_type;location;lat;lon;timestamp;P1;durP1;ratioP1;P2;durP2;ratioP2
55037;SDS011;40937;53.594;10.034;2024-02-26T00:00:13;9.25;;;8.38;;
55037;SDS011;40937;53.594;10.034;2024-02-26T00:02:41;8.60;;;7.78;;
55037;SDS011;40937;53.594;10.034;2024-02-26T00:05:11;10.55;;;9.48;;
55037;SDS011;40937;53.594;10.034;2024-02-26T00:07:39;11.60;;;10.57;;
55037;SDS011;40937;53.594;10.034;2024-02-26T00:10:10;12.43;;;11.32;;
55037;SDS011;40937;53.594;10.034;2024-02-26T00:12:41;10.57;;;8.73;;
55037;SDS011;40937;53.594;10.034;2024-02-26T00:15:11;9.60;;;8.75;;
55037;SDS011;40937;53.594;10.034;2024-02-26T00:17:40;11.80;;;8.25;;
55037;SDS011;40937;53.594;10.034;2024-02-26T00:20:13;10.32;;;9.32;;
55037;SDS011;40937;53.594;10.034;2024-02-26T00:22:41;10.15;;;9.15;;
55037;SDS011;40937;53.594;10.034;2024-02-26T00:25:09;10.45;;;9.57;;
55037;SDS011;40937;53.594;10.034;2024-02-26T00:27:38;10.68;;;9.57;;
55037;SDS011;40937;53.594;10.034;2024-02-26T00:30:07;10.75;;;9.75;;
55037;SDS011;40937;53.594;10.034;2024-02-26T00:32:36;10.77;;;9.73;;
55037;SDS011;40937;53.594;10.034;2024-02-26T00:35:07;9.85;;;8.98;;
55037;SDS011;40937;53.594;10.034;2024-02-26T00:37:37;9.93;;;9.23;;
55037;SDS011;40937;53.594;10.034;2024-02-26T00:40:05;10.18;;;9.27;;
55037;SDS011;40937;53.594;10.034;2024-02-26T00:42:34;11.90;;;10.77;;
55037;SDS011;40937;53.594;10.034;2024-02-26T00:45:02;11.57;;;10.48;;
55037;SDS011;40937;53.594;10.034;2024-02-26T00:47:30;10.23;;;9.25;;
55037;SDS011;40937;53.594;10.034;2024-02-26T00:50:00;9.52;;;8.77;;
55037;SDS011;40937;53.594;10.034;2024-02-26T00:52:28;10.18;;;9.35;;
55037;SDS011;40937;53.594;10.034;2024-02-26T00:54:57;10.25;;;9.45;;
55037;SDS011;40937;53.594;10.034;2024-02-26T00:57:26;9.93;;;8.95;;
55037;SDS011;40937;53.594;10.034;2024-02-26T00:59:55;10.82;;;9.82;;
55037;SDS011;40937;53.594;10.034;2024-02-26T01:02:25;11.18;;;10.18;;
55037;SDS011;40937;53.594;10.034;2024-02-26T01:04:53;11.20;;;10.07;;
55037;SDS011;40937;53.594;10.034;2024-02-26T01:07:21;11.05;;;10.15;;
55037;SDS011;40937;53.594;10.034;2024-02-26T01:09:50;11.68;;;10.57;;
55037;SDS011;40937;53.594;10.034;2024-02-26T01:12:23;11.75;;;10.55;;
55037;SDS011;40937;53.594;10.034;2024-02-26T01:14:51;11.77;;;10.60;;
55037;SDS011;40937;53.594;10.034;2024-02-26T01:17:21;12.32;;;10.93;;
55037;SDS011;40937;53.594;10.034;2024-02-26T01:19:51;11.20;;;10.30;;
55037;SDS011;40937;53.594;10.034;2024-02-26T01:22:25;11.00;;;10.10;;
55037;SDS011;40937;53.594;10.034;2024-02-26T01:24:58;11.38;;;10.48;;
55037;SDS011;40937;53.594;10.034;2024-02-26T01:27:30;10.65;;;9.70;;
55037;SDS011;40937;53.594;10.034;2024-02-26T01:29:58;10.48;;;9.68;;
55037;SDS011;40937;53.594;10.034;2024-02-26T01:32:29;10.23;;;9.52;;
55037;SDS011;40937;53.594;10.034;2024-02-26T01:35:00;11.35;;;10.35;;
55037;SDS011;40937;53.594;10.034;2024-02-26T01:37:29;10.63;;;9.75;;
55037;SDS011;40937;53.594;10.034;2024-02-26T01:39:56;11.90;;;10.73;;
55037;SDS011;40937;53.594;10.034;2024-02-26T01:42:27;11.23;;;10.30;;
55037;SDS011;40937;53.594;10.034;2024-02-26T01:44:57;10.25;;;9.48;;
55037;SDS011;40937;53.594;10.034;2024-02-26T01:47:25;11.32;;;10.20;;
55037;SDS011;40937;53.594;10.034;2024-02-26T01:49:54;10.48;;;9.68;;
55037;SDS011;40937;53.594;10.034;2024-02-26T01:52:24;11.75;;;10.85;;
55037;SDS011;40937;53.594;10.034;2024-02-26T01:55:01;10.63;;;9.63;;
55037;SDS011;40937;53.594;10.034;2024-02-26T01:57:29;11.00;;;10.10;;
55037;SDS011;40937;53.594;10.034;2024-02-26T01:59:59;11.77;;;10.88;;
55037;SDS011;40937;53.594;10.034;2024-02-26T02:02:26;10.35;;;9.32;;
55037;SDS011;40937;53.594;10.034;2024-02-26T02:04:54;10.95;;;10.05;;
55037;SDS011;40937;53.594;10.034;2024-02-26T02:07:21;10.73;;;9.88;;
55037;SDS011;40937;53.594;10.034;2024-02-26T02:09:53;11.38;;;10.45;;
55037;SDS011;40937;53.594;10.034;2024-02-26T02:12:21;11.15;;;10.25;;
55037;SDS011;40937;53.594;10.034;2024-02-26T02:14:49;10.85;;;9.77;;
55037;SDS011;40937;53.594;10.034;2024-02-26T02:17:20;11.02;;;10.02;;
55037;SDS011;40937;53.594;10.034;2024-02-26T02:19:56;10.65;;;9.75;;
55037;SDS011;40937;53.594;10.034;2024-02-26T02:22:28;13.15;;;11.98;;
55037;SDS011;40937;53.594;10.034;2024-02-26T02:24:58;13.77;;;12.32;;
55037;SDS011;40937;53.594;10.034;2024-02-26T02:27:26;14.45;;;13.15;;
55037;SDS011;40937;53.594;10.034;2024-02-26T02:29:58;14.90;;;13.68;;
55037;SDS011;40937;53.594;10.034;2024-02-26T02:32:26;12.88;;;11.77;;
55037;SDS011;40937;53.594;10.034;2024-02-26T02:34:56;12.63;;;11.63;;
55037;SDS011;40937;53.594;10.034;2024-02-26T02:37:24;13.55;;;12.35;;
55037;SDS011;40937;53.594;10.034;2024-02-26T02:39:53;14.80;;;13.70;;
55037;SDS011;40937;53.594;10.034;2024-02-26T02:42:20;15.38;;;14.07;;
55037;SDS011;40937;53.594;10.034;2024-02-26T02:44:48;13.40;;;12.38;;
55037;SDS011;40937;53.594;10.034;2024-02-26T02:47:17;11.65;;;10.80;;
55037;SDS011;40937;53.594;10.034;2024-02-26T02:49:48;13.07;;;11.98;;
55037;SDS011;40937;53.594;10.034;2024-02-26T02:52:16;13.38;;;12.18;;
55037;SDS011;40937;53.594;10.034;2024-02-26T02:54:43;14.85;;;13.60;;
55037;SDS011;40937;53.594;10.034;2024-02-26T02:57:12;15.27;;;14.02;;
55037;SDS011;40937;53.594;10.034;2024-02-26T02:59:39;14.98;;;13.77;;
55037;SDS011;40937;53.594;10.034;2024-02-26T03:02:06;16.80;;;15.43;;
55037;SDS011;40937;53.594;10.034;2024-02-26T03:04:34;17.35;;;15.85;;
55037;SDS011;40937;53.594;10.034;2024-02-26T03:07:01;15.23;;;13.70;;
55037;SDS011;40937;53.594;10.034;2024-02-26T03:09:29;18.80;;;17.17;;
55037;SDS011;40937;53.594;10.034;2024-02-26T03:11:58;18.63;;;17.02;;
55037;SDS011;40937;53.594;10.034;2024-02-26T03:14:28;20.23;;;18.52;;
55037;SDS011;40937;53.594;10.034;2024-02-26T03:16:59;20.10;;;18.20;;
55037;SDS011;40937;53.594;10.034;2024-02-26T03:19:30;17.85;;;16.30;;
55037;SDS011;40937;53.594;10.034;2024-02-26T03:22:00;18.33;;;16.73;;
55037;SDS011;40937;53.594;10.034;2024-02-26T03:24:28;15.35;;;14.07;;
55037;SDS011;40937;53.594;10.034;2024-02-26T03:27:00;14.63;;;13.43;;
55037;SDS011;40937;53.594;10.034;2024-02-26T03:29:36;15.65;;;14.38;;
55037;SDS011;40937;53.594;10.034;2024-02-26T03:32:04;14.63;;;13.23;;
55037;SDS011;40937;53.594;10.034;2024-02-26T03:34:33;14.80;;;13.65;;
55037;SDS011;40937;53.594;10.034;2024-02-26T03:37:04;18.90;;;16.25;;
55037;SDS011;40937;53.594;10.034;2024-02-26T03:39:33;15.70;;;14.43;;
55037;SDS011;40937;53.594;10.034;2024-02-26T03:42:00;19.50;;;17.83;;
55037;SDS011;40937;53.594;10.034;2024-02-26T03:44:27;16.77;;;15.35;;
55037;SDS011;40937;53.594;10.034;2024-02-26T03:46:56;17.42;;;15.93;;
55037;SDS011;40937;53.594;10.034;2024-02-26T03:49:24;18.30;;;16.70;;
55037;SDS011;40937;53.594;10.034;2024-02-26T03:51:55;19.63;;;17.92;;
55037;SDS011;40937;53.594;10.034;2024-02-26T03:54:23;19.67;;;17.98;;
55037;SDS011;40937;53.594;10.034;2024-02-26T03:56:51;18.52;;;16.80;;
55037;SDS011;40937;53.594;10.034;2024-02-26T03:59:19;18.25;;;16.42;;
55037;SDS011;40937;53.594;10.034;2024-02-26T04:01:50;17.77;;;16.17;;
55037;SDS011;40937;53.594;10.034;2024-02-26T04:04:21;17.52;;;16.00;;
55037;SDS011;40937;53.594;10.034;2024-02-26T04:06:57;18.17;;;16.58;;
55037;SDS011;40937;53.594;10.034;2024-02-26T04:09:24;17.52;;;16.13;;
55037;SDS011;40937;53.594;10.034;2024-02-26T04:11:58;17.95;;;16.42;;
55037;SDS011;40937;53.594;10.034;2024-02-26T04:14:27;18.55;;;16.83;;
55037;SDS011;40937;53.594;10.034;2024-02-26T04:17:01;17.77;;;16.17;;
55037;SDS011;40937;53.594;10.034;2024-02-26T04:19:35;16.95;;;15.38;;
55037;SDS011;40937;53.594;10.034;2024-02-26T04:22:06;18.10;;;16.58;;
55037;SDS011;40937;53.594;10.034;2024-02-26T04:24:36;19.33;;;17.38;;
55037;SDS011;40937;53.594;10.034;2024-02-26T04:27:04;19.77;;;18.00;;
55037;SDS011;40937;53.594;10.034;2024-02-26T04:29:32;18.45;;;16.92;;
55037;SDS011;40937;53.594;10.034;2024-02-26T04:31:59;19.45;;;17.75;;
55037;SDS011;40937;53.594;10.034;2024-02-26T04:34:27;21.55;;;19.55;;
55037;SDS011;40937;53.594;10.034;2024-02-26T04:36:56;19.73;;;17.92;;
55037;SDS011;40937;53.594;10.034;2024-02-26T04:39:28;19.52;;;17.90;;
55037;SDS011;40937;53.594;10.034;2024-02-26T04:41:56;19.90;;;18.20;;
55037;SDS011;40937;53.594;10.034;2024-02-26T04:44:25;19.50;;;17.80;;
55037;SDS011;40937;53.594;10.034;2024-02-26T04:46:53;18.13;;;16.33;;
55037;SDS011;40937;53.594;10.034;2024-02-26T04:49:23;17.70;;;16.10;;
55037;SDS011;40937;53.594;10.034;2024-02-26T04:51:51;19.52;;;17.52;;
55037;SDS011;40937;53.594;10.034;2024-02-26T04:54:24;19.95;;;18.35;;
55037;SDS011;40937;53.594;10.034;2024-02-26T04:56:52;20.45;;;18.55;;
55037;SDS011;40937;53.594;10.034;2024-02-26T04:59:19;21.10;;;19.27;;
55037;SDS011;40937;53.594;10.034;2024-02-26T05:01:47;22.80;;;20.75;;
55037;SDS011;40937;53.594;10.034;2024-02-26T05:04:17;21.55;;;19.60;;
55037;SDS011;40937;53.594;10.034;2024-02-26T05:06:44;22.35;;;20.23;;
55037;SDS011;40937;53.594;10.034;2024-02-26T05:09:12;21.65;;;19.77;;
55037;SDS011;40937;53.594;10.034;2024-02-26T05:11:42;20.75;;;18.92;;
55037;SDS011;40937;53.594;10.034;2024-02-26T05:14:10;20.63;;;18.73;;
55037;SDS011;40937;53.594;10.034;2024-02-26T05:16:40;20.10;;;18.48;;
55037;SDS011;40937;53.594;10.034;2024-02-26T05:19:08;20.38;;;18.52;;
55037;SDS011;40937;53.594;10.034;2024-02-26T05:21:36;21.60;;;19.52;;
55037;SDS011;40937;53.594;10.034;2024-02-26T05:24:16;19.85;;;18.05;;
55037;SDS011;40937;53.594;10.034;2024-02-26T05:26:49;19.20;;;17.60;;
55037;SDS011;40937;53.594;10.034;2024-02-26T05:29:20;21.77;;;19.88;;
55037;SDS011;40937;53.594;10.034;2024-02-26T05:31:47;21.25;;;19.27;;
55037;SDS011;40937;53.594;10.034;2024-02-26T05:34:15;21.60;;;19.45;;
55037;SDS011;40937;53.594;10.034;2024-02-26T05:36:42;20.73;;;18.92;;
55037;SDS011;40937;53.594;10.034;2024-02-26T05:39:12;20.55;;;18.65;;
55037;SDS011;40937;53.594;10.034;2024-02-26T05:41:39;22.13;;;20.15;;
55037;SDS011;40937;53.594;10.034;2024-02-26T05:44:11;19.88;;;18.02;;
55037;SDS011;40937;53.594;10.034;2024-02-26T05:46:43;20.92;;;19.00;;
55037;SDS011;40937;53.594;10.034;2024-02-26T05:49:11;22.42;;;20.17;;
55037;SDS011;40937;53.594;10.034;2024-02-26T05:51:39;22.20;;;20.30;;
55037;SDS011;40937;53.594;10.034;2024-02-26T05:54:08;23.50;;;21.40;;
55037;SDS011;40937;53.594;10.034;2024-02-26T05:56:38;22.77;;;20.48;;
55037;SDS011;40937;53.594;10.034;2024-02-26T05:59:06;21.67;;;19.80;;
55037;SDS011;40937;53.594;10.034;2024-02-26T06:01:43;21.92;;;19.85;;
55037;SDS011;40937;53.594;10.034;2024-02-26T06:04:10;22.02;;;19.98;;
55037;SDS011;40937;53.594;10.034;2024-02-26T06:06:38;23.05;;;21.02;;
55037;SDS011;40937;53.594;10.034;2024-02-26T06:09:07;21.42;;;19.50;;
55037;SDS011;40937;53.594;10.034;2024-02-26T06:11:36;21.48;;;19.67;;
55037;SDS011;40937;53.594;10.034;2024-02-26T06:14:06;19.10;;;17.40;;
55037;SDS011;40937;53.594;10.034;2024-02-26T06:16:37;19.33;;;17.60;;
55037;SDS011;40937;53.594;10.034;2024-02-26T06:19:12;18.95;;;17.33;;
55037;SDS011;40937;53.594;10.034;2024-02-26T06:21:40;20.30;;;18.55;;
55037;SDS011;40937;53.594;10.034;2024-02-26T06:24:08;19.05;;;17.50;;
55037;SDS011;40937;53.594;10.034;2024-02-26T06:26:38;19.25;;;17.65;;
55037;SDS011;40937;53.594;10.034;2024-02-26T06:29:06;19.20;;;17.60;;
55037;SDS011;40937;53.594;10.034;2024-02-26T06:31:36;19.05;;;17.45;;
55037;SDS011;40937;53.594;10.034;2024-02-26T06:34:05;18.15;;;16.63;;
55037;SDS011;40937;53.594;10.034;2024-02-26T06:36:32;18.40;;;16.88;;
55037;SDS011;40937;53.594;10.034;2024-02-26T06:39:00;18.17;;;16.45;;
55037;SDS011;40937;53.594;10.034;2024-02-26T06:41:28;16.85;;;15.55;;
55037;SDS011;40937;53.594;10.034;2024-02-26T06:43:55;18.45;;;16.85;;
55037;SDS011;40937;53.594;10.034;2024-02-26T06:46:23;17.67;;;16.27;;
55037;SDS011;40937;53.594;10.034;2024-02-26T06:48:51;16.75;;;15.45;;
55037;SDS011;40937;53.594;10.034;2024-02-26T06:51:20;17.50;;;16.05;;
55037;SDS011;40937;53.594;10.034;2024-02-26T06:53:47;19.42;;;17.77;;
55037;SDS011;40937;53.594;10.034;2024-02-26T06:56:15;17.98;;;16.55;;
55037;SDS011;40937;53.594;10.034;2024-02-26T06:58:43;17.25;;;15.75;;
55037;SDS011;40937;53.594;10.034;2024-02-26T07:01:11;17.30;;;15.80;;
55037;SDS011;40937;53.594;10.034;2024-02-26T07:03:40;20.50;;;18.52;;
55037;SDS011;40937;53.594;10.034;2024-02-26T07:06:08;18.77;;;17.10;;
55037;SDS011;40937;53.594;10.034;2024-02-26T07:08:36;17.65;;;15.98;;
55037;SDS011;40937;53.594;10.034;2024-02-26T07:11:06;18.02;;;16.50;;
55037;SDS011;40937;53.594;10.034;2024-02-26T07:13:34;16.85;;;15.35;;
55037;SDS011;40937;53.594;10.034;2024-02-26T07:16:01;17.98;;;16.48;;
55037;SDS011;40937;53.594;10.034;2024-02-26T07:18:29;16.77;;;15.38;;
55037;SDS011;40937;53.594;10.034;2024-02-26T07:20:56;17.33;;;15.90;;
55037;SDS011;40937;53.594;10.034;2024-02-26T07:23:23;16.80;;;15.30;;
55037;SDS011;40937;53.594;10.034;2024-02-26T07:25:52;16.95;;;15.25;;
55037;SDS011;40937;53.594;10.034;2024-02-26T07:28:19;17.88;;;16.27;;
55037;SDS011;40937;53.594;10.034;2024-02-26T07:30:46;16.60;;;15.18;;
55037;SDS011;40937;53.594;10.034;2024-02-26T07:33:13;16.98;;;15.57;;
55037;SDS011;40937;53.594;10.034;2024-02-26T07:35:41;15.90;;;14.50;;
55037;SDS011;40937;53.594;10.034;2024-02-26T07:38:08;16.58;;;15.07;;
55037;SDS011;40937;53.594;10.034;2024-02-26T07:40:35;16.33;;;14.90;;
55037;SDS011;40937;53.594;10.034;2024-02-26T07:43:04;15.57;;;14.27;;
55037;SDS011;40937;53.594;10.034;2024-02-26T07:45:31;15.80;;;14.45;;
55037;SDS011;40937;53.594;10.034;2024-02-26T07:47:59;18.42;;;16.65;;
55037;SDS011;40937;53.594;10.034;2024-02-26T07:50:26;15.57;;;14.25;;
55037;SDS011;40937;53.594;10.034;2024-02-26T07:52:53;15.95;;;14.35;;
55037;SDS011;40937;53.594;10.034;2024-02-26T07:55:20;17.77;;;16.08;;
55037;SDS011;40937;53.594;10.034;2024-02-26T07:57:48;16.83;;;14.80;;
55037;SDS011;40937;53.594;10.034;2024-02-26T08:00:17;17.60;;;15.90;;
55037;SDS011;40937;53.594;10.034;2024-02-26T08:02:45;17.55;;;15.90;;
55037;SDS011;40937;53.594;10.034;2024-02-26T08:05:12;17.67;;;16.02;;
55037;SDS011;40937;53.594;10.034;2024-02-26T08:07:40;17.10;;;15.50;;
55037;SDS011;40937;53.594;10.034;2024-02-26T08:10:08;17.42;;;15.75;;
55037;SDS011;40937;53.594;10.034;2024-02-26T08:12:36;18.33;;;16.52;;
55037;SDS011;40937;53.594;10.034;2024-02-26T08:15:02;17.83;;;16.17;;
55037;SDS011;40937;53.594;10.034;2024-02-26T08:17:31;18.10;;;16.45;;
55037;SDS011;40937;53.594;10.034;2024-02-26T08:19:59;19.55;;;17.70;;
55037;SDS011;40937;53.594;10.034;2024-02-26T08:22:27;18.25;;;16.55;;
55037;SDS011;40937;53.594;10.034;2024-02-26T08:24:54;18.60;;;16.80;;
55037;SDS011;40937;53.594;10.034;2024-02-26T08:27:21;16.33;;;14.90;;
55037;SDS011;40937;53.594;10.034;2024-02-26T08:29:48;17.92;;;16.13;;
55037;SDS011;40937;53.594;10.034;2024-02-26T08:32:15;17.55;;;16.00;;
55037;SDS011;40937;53.594;10.034;2024-02-26T08:34:44;17.35;;;15.85;;
55037;SDS011;40937;53.594;10.034;2024-02-26T08:37:11;16.48;;;15.07;;
55037;SDS011;40937;53.594;10.034;2024-02-26T08:39:38;15.93;;;14.52;;
55037;SDS011;40937;53.594;10.034;2024-02-26T08:42:06;16.02;;;14.70;;
55037;SDS011;40937;53.594;10.034;2024-02-26T08:44:33;14.93;;;13.73;;
55037;SDS011;40937;53.594;10.034;2024-02-26T08:47:00;16.30;;;14.90;;
55037;SDS011;40937;53.594;10.034;2024-02-26T08:49:28;15.80;;;14.25;;
55037;SDS011;40937;53.594;10.034;2024-02-26T08:51:56;16.08;;;13.65;;
55037;SDS011;40937;53.594;10.034;2024-02-26T08:54:23;14.75;;;13.55;;
55037;SDS011;40937;53.594;10.034;2024-02-26T08:56:51;15.48;;;14.25;;
55037;SDS011;40937;53.594;10.034;2024-02-26T08:59:18;17.17;;;15.68;;
55037;SDS011;40937;53.594;10.034;2024-02-26T09:01:48;16.63;;;15.10;;
55037;SDS011;40937;53.594;10.034;2024-02-26T09:04:15;16.90;;;15.50;;
55037;SDS011;40937;53.594;10.034;2024-02-26T09:06:42;17.10;;;15.57;;
55037;SDS011;40937;53.594;10.034;2024-02-26T09:09:11;16.77;;;15.38;;
55037;SDS011;40937;53.594;10.034;2024-02-26T09:11:38;16.52;;;15.13;;
55037;SDS011;40937;53.594;10.034;2024-02-26T09:14:05;17.33;;;15.75;;
55037;SDS011;40937;53.594;10.034;2024-02-26T09:16:32;15.70;;;14.40;;
55037;SDS011;40937;53.594;10.034;2024-02-26T09:19:00;16.02;;;14.63;;
55037;SDS011;40937;53.594;10.034;2024-02-26T09:21:28;16.10;;;14.70;;
55037;SDS011;40937;53.594;10.034;2024-02-26T09:23:56;16.15;;;14.75;;
55037;SDS011;40937;53.594;10.034;2024-02-26T09:26:25;16.77;;;15.18;;
55037;SDS011;40937;53.594;10.034;2024-02-26T09:28:52;15.75;;;14.48;;
55037;SDS011;40937;53.594;10.034;2024-02-26T09:31:19;16.88;;;15.25;;
55037;SDS011;40937;53.594;10.034;2024-02-26T09:33:46;17.92;;;16.33;;
55037;SDS011;40937;53.594;10.034;2024-02-26T09:36:13;17.00;;;15.40;;
55037;SDS011;40937;53.594;10.034;2024-02-26T09:38:40;16.02;;;14.55;;
55037;SDS011;40937;53.594;10.034;2024-02-26T09:41:10;16.83;;;15.32;;
55037;SDS011;40937;53.594;10.034;2024-02-26T09:46:10;18.05;;;16.35;;
55037;SDS011;40937;53.594;10.034;2024-02-26T09:48:38;19.95;;;17.33;;
55037;SDS011;40937;53.594;10.034;2024-02-26T09:51:05;18.55;;;16.85;;
55037;SDS011;40937;53.594;10.034;2024-02-26T09:53:32;18.33;;;16.77;;
55037;SDS011;40937;53.594;10.034;2024-02-26T09:56:05;18.77;;;17.00;;
55037;SDS011;40937;53.594;10.034;2024-02-26T09:58:33;19.58;;;17.58;;
55037;SDS011;40937;53.594;10.034;2024-02-26T10:01:04;19.83;;;17.92;;
55037;SDS011;40937;53.594;10.034;2024-02-26T10:03:38;21.55;;;19.45;;
55037;SDS011;40937;53.594;10.034;2024-02-26T10:06:07;19.35;;;17.55;;
55037;SDS011;40937;53.594;10.034;2024-02-26T10:08:35;21.52;;;19.42;;
55037;SDS011;40937;53.594;10.034;2024-02-26T10:11:02;21.92;;;19.77;;
55037;SDS011;40937;53.594;10.034;2024-02-26T10:13:30;20.90;;;18.80;;
55037;SDS011;40937;53.594;10.034;2024-02-26T10:15:58;22.25;;;20.13;;
55037;SDS011;40937;53.594;10.034;2024-02-26T10:18:26;20.90;;;18.92;;
55037;SDS011;40937;53.594;10.034;2024-02-26T10:21:00;20.13;;;18.33;;
55037;SDS011;40937;53.594;10.034;2024-02-26T10:23:27;21.25;;;19.25;;
55037;SDS011;40937;53.594;10.034;2024-02-26T10:25:55;22.80;;;19.73;;
55037;SDS011;40937;53.594;10.034;2024-02-26T10:28:22;20.48;;;18.58;;
55037;SDS011;40937;53.594;10.034;2024-02-26T10:30:50;20.92;;;18.85;;
55037;SDS011;40937;53.594;10.034;2024-02-26T10:33:18;23.38;;;21.30;;
55037;SDS011;40937;53.594;10.034;2024-02-26T10:35:47;30.50;;;27.30;;
55037;SDS011;40937;53.594;10.034;2024-02-26T10:38:15;24.13;;;21.73;;
55037;SDS011;40937;53.594;10.034;2024-02-26T10:40:45;22.75;;;20.65;;
55037;SDS011;40937;53.594;10.034;2024-02-26T10:43:13;24.30;;;21.80;;
55037;SDS011;40937;53.594;10.034;2024-02-26T10:45:42;22.48;;;20.17;;
55037;SDS011;40937;53.594;10.034;2024-02-26T10:48:11;21.85;;;19.85;;
55037;SDS011;40937;53.594;10.034;2024-02-26T10:50:40;21.63;;;19.60;;
55037;SDS011;40937;53.594;10.034;2024-02-26T10:53:10;21.98;;;19.77;;
55037;SDS011;40937;53.594;10.034;2024-02-26T10:55:42;22.17;;;20.17;;
55037;SDS011;40937;53.594;10.034;2024-02-26T10:58:13;23.75;;;21.40;;
55037;SDS011;40937;53.594;10.034;2024-02-26T11:00:41;20.85;;;18.85;;
55037;SDS011;40937;53.594;10.034;2024-02-26T11:03:09;21.17;;;19.00;;
55037;SDS011;40937;53.594;10.034;2024-02-26T11:05:37;21.45;;;19.42;;
55037;SDS011;40937;53.594;10.034;2024-02-26T11:08:08;21.05;;;19.05;;
55037;SDS011;40937;53.594;10.034;2024-02-26T11:10:38;22.33;;;19.98;;
55037;SDS011;40937;53.594;10.034;2024-02-26T11:13:06;18.77;;;16.90;;
55037;SDS011;40937;53.594;10.034;2024-02-26T11:15:37;21.85;;;19.90;;
55037;SDS011;40937;53.594;10.034;2024-02-26T11:18:07;19.58;;;17.83;;
55037;SDS011;40937;53.594;10.034;2024-02-26T11:20:38;20.70;;;18.75;;
55037;SDS011;40937;53.594;10.034;2024-02-26T11:23:08;19.92;;;17.83;;
55037;SDS011;40937;53.594;10.034;2024-02-26T11:25:35;19.63;;;17.85;;
55037;SDS011;40937;53.594;10.034;2024-02-26T11:28:05;20.38;;;18.38;;
55037;SDS011;40937;53.594;10.034;2024-02-26T11:30:36;19.13;;;17.33;;
55037;SDS011;40937;53.594;10.034;2024-02-26T11:33:08;19.63;;;17.67;;
55037;SDS011;40937;53.594;10.034;2024-02-26T11:35:37;18.25;;;16.58;;
55037;SDS011;40937;53.594;10.034;2024-02-26T11:38:06;20.55;;;18.73;;
55037;SDS011;40937;53.594;10.034;2024-02-26T11:40:37;19.02;;;17.23;;
55037;SDS011;40937;53.594;10.034;2024-02-26T11:43:06;18.15;;;16.60;;
55037;SDS011;40937;53.594;10.034;2024-02-26T11:45:49;19.52;;;17.83;;
55037;SDS011;40937;53.594;10.034;2024-02-26T11:48:21;20.25;;;18.35;;
55037;SDS011;40937;53.594;10.034;2024-02-26T11:50:50;19.23;;;16.52;;
55037;SDS011;40937;53.594;10.034;2024-02-26T11:53:19;18.40;;;16.77;;
55037;SDS011;40937;53.594;10.034;2024-02-26T11:55:49;17.55;;;16.00;;
55037;SDS011;40937;53.594;10.034;2024-02-26T11:58:39;17.08;;;15.63;;
55037;SDS011;40937;53.594;10.034;2024-02-26T12:04:08;18.42;;;16.60;;
55037;SDS011;40937;53.594;10.034;2024-02-26T12:06:47;15.95;;;14.70;;
55037;SDS011;40937;53.594;10.034;2024-02-26T12:09:36;16.45;;;15.05;;
55037;SDS011;40937;53.594;10.034;2024-02-26T12:12:06;16.23;;;14.73;;
55037;SDS011;40937;53.594;10.034;2024-02-26T12:14:34;18.35;;;16.00;;
55037;SDS011;40937;53.594;10.034;2024-02-26T12:17:02;17.45;;;15.90;;
55037;SDS011;40937;53.594;10.034;2024-02-26T12:19:33;18.10;;;16.50;;
55037;SDS011;40937;53.594;10.034;2024-02-26T12:22:01;15.68;;;14.27;;
55037;SDS011;40937;53.594;10.034;2024-02-26T12:24:28;18.48;;;16.83;;
55037;SDS011;40937;53.594;10.034;2024-02-26T12:26:55;17.58;;;15.98;;
55037;SDS011;40937;53.594;10.034;2024-02-26T12:29:25;17.75;;;16.15;;
55037;SDS011;40937;53.594;10.034;2024-02-26T12:31:52;17.13;;;15.52;;
55037;SDS011;40937;53.594;10.034;2024-02-26T12:34:19;16.75;;;15.35;;
55037;SDS011;40937;53.594;10.034;2024-02-26T12:36:47;17.60;;;15.85;;
55037;SDS011;40937;53.594;10.034;2024-02-26T12:39:14;19.05;;;17.13;;
55037;SDS011;40937;53.594;10.034;2024-02-26T12:41:41;19.13;;;17.33;;
55037;SDS011;40937;53.594;10.034;2024-02-26T12:46:43;15.23;;;13.93;;
55037;SDS011;40937;53.594;10.034;2024-02-26T12:49:14;16.70;;;15.05;;
55037;SDS011;40937;53.594;10.034;2024-02-26T12:51:42;16.23;;;14.82;;
55037;SDS011;40937;53.594;10.034;2024-02-26T12:54:10;16.52;;;14.98;;
55037;SDS011;40937;53.594;10.034;2024-02-26T12:56:37;15.88;;;14.48;;
55037;SDS011;40937;53.594;10.034;2024-02-26T12:59:05;16.48;;;14.98;;
55037;SDS011;40937;53.594;10.034;2024-02-26T13:01:32;16.13;;;14.68;;
55037;SDS011;40937;53.594;10.034;2024-02-26T13:04:01;15.77;;;14.50;;
55037;SDS011;40937;53.594;10.034;2024-02-26T13:06:32;14.75;;;13.48;;
55037;SDS011;40937;53.594;10.034;2024-02-26T13:09:00;17.17;;;13.90;;
55037;SDS011;40937;53.594;10.034;2024-02-26T13:11:28;15.10;;;13.57;;
55037;SDS011;40937;53.594;10.034;2024-02-26T13:13:57;17.05;;;15.48;;
55037;SDS011;40937;53.594;10.034;2024-02-26T13:16:24;16.83;;;15.27;;
55037;SDS011;40937;53.594;10.034;2024-02-26T13:18:52;15.05;;;13.68;;
55037;SDS011;40937;53.594;10.034;2024-02-26T13:21:21;15.23;;;13.93;;
55037;SDS011;40937;53.594;10.034;2024-02-26T13:23:52;17.17;;;15.48;;
55037;SDS011;40937;53.594;10.034;2024-02-26T13:26:21;17.02;;;15.40;;
55037;SDS011;40937;53.594;10.034;2024-02-26T13:28:59;15.82;;;14.43;;
55037;SDS011;40937;53.594;10.034;2024-02-26T13:31:27;15.02;;;13.77;;
55037;SDS011;40937;53.594;10.034;2024-02-26T13:33:54;15.68;;;14.27;;
55037;SDS011;40937;53.594;10.034;2024-02-26T13:36:23;16.45;;;14.95;;
55037;SDS011;40937;53.594;10.034;2024-02-26T13:38:51;15.38;;;13.85;;
55037;SDS011;40937;53.594;10.034;2024-02-26T13:41:20;16.02;;;14.63;;
55037;SDS011;40937;53.594;10.034;2024-02-26T13:43:47;15.90;;;14.60;;
55037;SDS011;40937;53.594;10.034;2024-02-26T13:46:15;15.35;;;14.13;;
55037;SDS011;40937;53.594;10.034;2024-02-26T13:48:42;16.77;;;15.27;;
55037;SDS011;40937;53.594;10.034;2024-02-26T13:51:10;15.25;;;13.95;;
55037;SDS011;40937;53.594;10.034;2024-02-26T13:53:38;15.98;;;14.40;;
55037;SDS011;40937;53.594;10.034;2024-02-26T13:56:05;16.48;;;15.10;;
55037;SDS011;40937;53.594;10.034;2024-02-26T13:58:33;16.60;;;15.10;;
55037;SDS011;40937;53.594;10.034;2024-02-26T14:01:01;17.00;;;15.52;;
55037;SDS011;40937;53.594;10.034;2024-02-26T14:03:29;16.55;;;14.88;;
55037;SDS011;40937;53.594;10.034;2024-02-26T14:05:56;16.33;;;14.68;;
55037;SDS011;40937;53.594;10.034;2024-02-26T14:08:24;16.35;;;14.82;;
55037;SDS011;40937;53.594;10.034;2024-02-26T14:10:52;17.02;;;15.45;;
55037;SDS011;40937;53.594;10.034;2024-02-26T14:13:20;16.23;;;14.85;;
55037;SDS011;40937;53.594;10.034;2024-02-26T14:15:47;26.08;;;15.80;;
55037;SDS011;40937;53.594;10.034;2024-02-26T14:18:15;16.23;;;14.68;;
55037;SDS011;40937;53.594;10.034;2024-02-26T14:20:42;16.02;;;14.55;;
55037;SDS011;40937;53.594;10.034;2024-02-26T14:23:10;17.67;;;16.08;;
55037;SDS011;40937;53.594;10.034;2024-02-26T14:25:37;17.63;;;15.95;;
55037;SDS011;40937;53.594;10.034;2024-02-26T14:28:06;18.75;;;16.92;;